Terminal Aerodrome Forecast
Issued by NWS Paducah, KY

Home | Current Version | Previous Version | Text Only | Print | Product List | Glossary On
Versions: 1 2 3 4 5 6 7 8 9 10 11 12 13 14 15 16 17 18 19 20 21 22 23 24
000
FTUS43 KPAH 301700 AAA
TAFPAH
TAF AMD
KPAH 301753Z 3018/3118 VRB08G18KT 1SM +TSRA BR BKN015CB
      TEMPO 3018/3019 1/4SM +TSRA FG
     FM301900 20006KT 6SM -SHRA BR VCTS SCT015CB BKN030
     FM310000 17005KT 6SM -SHRA BR BKN030
     FM310600 18005KT 5SM -SHRA BR BKN015 PROB30 3106/3112 3SM TSRA
      BR BKN010CB
     FM311500 20005KT P6SM BKN030=

USA.gov is the U.S. government's official web portal to all federal, state and local government web resources and services.